sensor_id;sensor_type;location;lat;lon;timestamp;P1;durP1;ratioP1;P2;durP2;ratioP2
16612;SDS011;8419;52.358;9.752;2023-10-13T00:02:43;14.38;;;9.15;;
16612;SDS011;8419;52.358;9.752;2023-10-13T00:05:28;18.30;;;9.93;;
16612;SDS011;8419;52.358;9.752;2023-10-13T00:08:14;13.62;;;8.63;;
16612;SDS011;8419;52.358;9.752;2023-10-13T00:11:02;15.57;;;9.63;;
16612;SDS011;8419;52.358;9.752;2023-10-13T00:13:49;15.25;;;9.32;;
16612;SDS011;8419;52.358;9.752;2023-10-13T00:16:34;16.02;;;9.18;;
16612;SDS011;8419;52.358;9.752;2023-10-13T00:19:27;16.23;;;9.73;;
16612;SDS011;8419;52.358;9.752;2023-10-13T00:22:21;15.52;;;8.05;;
16612;SDS011;8419;52.358;9.752;2023-10-13T00:25:07;11.90;;;8.05;;
16612;SDS011;8419;52.358;9.752;2023-10-13T00:28:05;17.05;;;8.63;;
16612;SDS011;8419;52.358;9.752;2023-10-13T00:30:53;13.48;;;8.57;;
16612;SDS011;8419;52.358;9.752;2023-10-13T00:33:44;13.20;;;8.45;;
16612;SDS011;8419;52.358;9.752;2023-10-13T00:36:29;13.93;;;8.93;;
16612;SDS011;8419;52.358;9.752;2023-10-13T00:39:16;15.95;;;8.88;;
16612;SDS011;8419;52.358;9.752;2023-10-13T00:42:01;15.30;;;8.52;;
16612;SDS011;8419;52.358;9.752;2023-10-13T00:44:51;12.60;;;8.43;;
16612;SDS011;8419;52.358;9.752;2023-10-13T00:47:38;13.95;;;8.90;;
16612;SDS011;8419;52.358;9.752;2023-10-13T00:50:24;12.95;;;8.70;;
16612;SDS011;8419;52.358;9.752;2023-10-13T00:53:10;16.90;;;9.23;;
16612;SDS011;8419;52.358;9.752;2023-10-13T00:55:56;15.85;;;9.68;;
16612;SDS011;8419;52.358;9.752;2023-10-13T00:58:50;13.23;;;8.85;;
16612;SDS011;8419;52.358;9.752;2023-10-13T01:01:36;14.73;;;8.50;;
16612;SDS011;8419;52.358;9.752;2023-10-13T01:04:25;15.40;;;8.75;;
16612;SDS011;8419;52.358;9.752;2023-10-13T01:07:16;13.40;;;8.68;;
16612;SDS011;8419;52.358;9.752;2023-10-13T01:10:02;16.52;;;8.80;;
16612;SDS011;8419;52.358;9.752;2023-10-13T01:12:48;14.73;;;8.60;;
16612;SDS011;8419;52.358;9.752;2023-10-13T01:15:36;17.15;;;9.25;;
16612;SDS011;8419;52.358;9.752;2023-10-13T01:18:25;16.33;;;8.95;;
16612;SDS011;8419;52.358;9.752;2023-10-13T01:21:12;21.30;;;9.30;;
16612;SDS011;8419;52.358;9.752;2023-10-13T01:24:01;13.32;;;8.45;;
16612;SDS011;8419;52.358;9.752;2023-10-13T01:26:52;18.15;;;9.07;;
16612;SDS011;8419;52.358;9.752;2023-10-13T01:29:37;15.23;;;9.13;;
16612;SDS011;8419;52.358;9.752;2023-10-13T01:32:24;16.23;;;9.95;;
16612;SDS011;8419;52.358;9.752;2023-10-13T01:35:10;16.08;;;9.80;;
16612;SDS011;8419;52.358;9.752;2023-10-13T01:37:55;17.92;;;10.18;;
16612;SDS011;8419;52.358;9.752;2023-10-13T01:40:40;16.62;;;9.25;;
16612;SDS011;8419;52.358;9.752;2023-10-13T01:43:27;14.65;;;9.73;;
16612;SDS011;8419;52.358;9.752;2023-10-13T01:46:13;16.08;;;10.07;;
16612;SDS011;8419;52.358;9.752;2023-10-13T01:48:59;15.90;;;10.27;;
16612;SDS011;8419;52.358;9.752;2023-10-13T01:51:47;18.98;;;10.05;;
16612;SDS011;8419;52.358;9.752;2023-10-13T01:54:32;19.98;;;10.68;;
16612;SDS011;8419;52.358;9.752;2023-10-13T01:57:18;19.83;;;11.38;;
16612;SDS011;8419;52.358;9.752;2023-10-13T02:00:10;17.55;;;11.57;;
16612;SDS011;8419;52.358;9.752;2023-10-13T02:03:03;19.00;;;11.15;;
16612;SDS011;8419;52.358;9.752;2023-10-13T02:05:51;19.52;;;10.98;;
16612;SDS011;8419;52.358;9.752;2023-10-13T02:08:41;16.95;;;10.45;;
16612;SDS011;8419;52.358;9.752;2023-10-13T02:11:27;22.75;;;11.55;;
16612;SDS011;8419;52.358;9.752;2023-10-13T02:14:13;19.37;;;11.77;;
16612;SDS011;8419;52.358;9.752;2023-10-13T02:17:01;18.85;;;11.65;;
16612;SDS011;8419;52.358;9.752;2023-10-13T02:19:56;20.15;;;11.57;;
16612;SDS011;8419;52.358;9.752;2023-10-13T02:22:42;20.15;;;12.77;;
16612;SDS011;8419;52.358;9.752;2023-10-13T02:25:34;20.98;;;11.48;;
16612;SDS011;8419;52.358;9.752;2023-10-13T02:28:26;18.73;;;11.73;;
16612;SDS011;8419;52.358;9.752;2023-10-13T02:31:15;19.58;;;12.18;;
16612;SDS011;8419;52.358;9.752;2023-10-13T02:34:02;20.00;;;11.88;;
16612;SDS011;8419;52.358;9.752;2023-10-13T02:36:50;20.15;;;12.98;;
16612;SDS011;8419;52.358;9.752;2023-10-13T02:39:38;18.10;;;12.05;;
16612;SDS011;8419;52.358;9.752;2023-10-13T02:42:25;21.58;;;11.85;;
16612;SDS011;8419;52.358;9.752;2023-10-13T02:45:11;23.40;;;12.77;;
16612;SDS011;8419;52.358;9.752;2023-10-13T02:47:56;24.33;;;13.55;;
16612;SDS011;8419;52.358;9.752;2023-10-13T02:50:56;24.73;;;13.25;;
16612;SDS011;8419;52.358;9.752;2023-10-13T02:53:46;20.08;;;12.93;;
16612;SDS011;8419;52.358;9.752;2023-10-13T02:56:33;21.05;;;13.57;;
16612;SDS011;8419;52.358;9.752;2023-10-13T02:59:18;20.52;;;12.77;;
16612;SDS011;8419;52.358;9.752;2023-10-13T03:02:18;21.67;;;13.52;;
16612;SDS011;8419;52.358;9.752;2023-10-13T03:05:08;21.20;;;12.25;;
16612;SDS011;8419;52.358;9.752;2023-10-13T03:07:54;19.60;;;11.48;;
16612;SDS011;8419;52.358;9.752;2023-10-13T03:10:40;17.23;;;11.12;;
16612;SDS011;8419;52.358;9.752;2023-10-13T03:13:31;15.70;;;10.95;;
16612;SDS011;8419;52.358;9.752;2023-10-13T03:16:17;17.60;;;11.10;;
16612;SDS011;8419;52.358;9.752;2023-10-13T03:19:04;15.57;;;10.98;;
16612;SDS011;8419;52.358;9.752;2023-10-13T03:21:52;14.27;;;9.98;;
16612;SDS011;8419;52.358;9.752;2023-10-13T03:24:41;17.58;;;10.05;;
16612;SDS011;8419;52.358;9.752;2023-10-13T03:27:30;13.98;;;10.23;;
16612;SDS011;8419;52.358;9.752;2023-10-13T03:30:45;13.73;;;10.32;;
16612;SDS011;8419;52.358;9.752;2023-10-13T03:33:36;12.77;;;9.63;;
16612;SDS011;8419;52.358;9.752;2023-10-13T03:36:22;13.82;;;8.70;;
16612;SDS011;8419;52.358;9.752;2023-10-13T03:39:40;11.98;;;8.27;;
16612;SDS011;8419;52.358;9.752;2023-10-13T03:42:29;12.02;;;8.68;;
16612;SDS011;8419;52.358;9.752;2023-10-13T03:45:16;16.87;;;9.43;;
16612;SDS011;8419;52.358;9.752;2023-10-13T03:48:03;12.88;;;9.25;;
16612;SDS011;8419;52.358;9.752;2023-10-13T03:50:53;14.95;;;9.10;;
16612;SDS011;8419;52.358;9.752;2023-10-13T03:53:47;12.75;;;8.70;;
16612;SDS011;8419;52.358;9.752;2023-10-13T03:56:36;13.13;;;9.05;;
16612;SDS011;8419;52.358;9.752;2023-10-13T03:59:25;14.87;;;9.48;;
16612;SDS011;8419;52.358;9.752;2023-10-13T04:02:19;15.30;;;9.25;;
16612;SDS011;8419;52.358;9.752;2023-10-13T04:05:06;12.60;;;8.98;;
16612;SDS011;8419;52.358;9.752;2023-10-13T04:07:53;12.77;;;8.38;;
16612;SDS011;8419;52.358;9.752;2023-10-13T04:10:57;11.20;;;8.48;;
16612;SDS011;8419;52.358;9.752;2023-10-13T04:14:01;15.45;;;8.23;;
16612;SDS011;8419;52.358;9.752;2023-10-13T04:17:08;14.15;;;8.23;;
16612;SDS011;8419;52.358;9.752;2023-10-13T04:19:58;10.05;;;8.30;;
16612;SDS011;8419;52.358;9.752;2023-10-13T04:23:12;11.85;;;7.62;;
16612;SDS011;8419;52.358;9.752;2023-10-13T04:26:09;11.07;;;7.25;;
16612;SDS011;8419;52.358;9.752;2023-10-13T04:29:05;9.93;;;7.55;;
16612;SDS011;8419;52.358;9.752;2023-10-13T04:31:55;11.20;;;8.10;;
16612;SDS011;8419;52.358;9.752;2023-10-13T04:34:44;9.30;;;7.40;;
16612;SDS011;8419;52.358;9.752;2023-10-13T04:37:30;11.50;;;7.47;;
16612;SDS011;8419;52.358;9.752;2023-10-13T04:40:32;10.57;;;8.35;;
16612;SDS011;8419;52.358;9.752;2023-10-13T04:43:19;11.40;;;7.82;;
16612;SDS011;8419;52.358;9.752;2023-10-13T04:46:17;12.05;;;7.97;;
16612;SDS011;8419;52.358;9.752;2023-10-13T04:49:19;8.95;;;7.35;;
16612;SDS011;8419;52.358;9.752;2023-10-13T04:52:12;10.98;;;7.32;;
16612;SDS011;8419;52.358;9.752;2023-10-13T04:55:11;12.68;;;7.07;;
16612;SDS011;8419;52.358;9.752;2023-10-13T04:58:17;8.32;;;6.45;;
16612;SDS011;8419;52.358;9.752;2023-10-13T05:01:30;10.20;;;7.37;;
16612;SDS011;8419;52.358;9.752;2023-10-13T05:04:48;12.80;;;6.87;;
16612;SDS011;8419;52.358;9.752;2023-10-13T05:07:53;11.85;;;6.90;;
16612;SDS011;8419;52.358;9.752;2023-10-13T05:10:56;12.30;;;6.80;;
16612;SDS011;8419;52.358;9.752;2023-10-13T05:14:00;9.80;;;7.15;;
16612;SDS011;8419;52.358;9.752;2023-10-13T05:20:23;11.50;;;6.78;;
16612;SDS011;8419;52.358;9.752;2023-10-13T05:23:29;10.77;;;6.53;;
16612;SDS011;8419;52.358;9.752;2023-10-13T05:26:34;10.07;;;7.12;;
16612;SDS011;8419;52.358;9.752;2023-10-13T05:29:39;14.02;;;7.25;;
16612;SDS011;8419;52.358;9.752;2023-10-13T05:32:45;12.15;;;7.47;;
16612;SDS011;8419;52.358;9.752;2023-10-13T05:35:49;11.05;;;7.65;;
16612;SDS011;8419;52.358;9.752;2023-10-13T05:38:53;13.10;;;8.23;;
16612;SDS011;8419;52.358;9.752;2023-10-13T05:41:57;8.30;;;7.15;;
16612;SDS011;8419;52.358;9.752;2023-10-13T05:45:00;12.55;;;7.75;;
16612;SDS011;8419;52.358;9.752;2023-10-13T05:48:08;11.45;;;7.70;;
16612;SDS011;8419;52.358;9.752;2023-10-13T05:51:01;13.95;;;7.53;;
16612;SDS011;8419;52.358;9.752;2023-10-13T05:54:09;15.10;;;8.43;;
16612;SDS011;8419;52.358;9.752;2023-10-13T05:57:13;12.05;;;7.65;;
16612;SDS011;8419;52.358;9.752;2023-10-13T06:00:27;13.07;;;8.02;;
16612;SDS011;8419;52.358;9.752;2023-10-13T06:03:31;11.25;;;6.35;;
16612;SDS011;8419;52.358;9.752;2023-10-13T06:06:35;10.27;;;7.57;;
16612;SDS011;8419;52.358;9.752;2023-10-13T06:09:38;10.32;;;7.45;;
16612;SDS011;8419;52.358;9.752;2023-10-13T06:12:42;11.05;;;7.28;;
16612;SDS011;8419;52.358;9.752;2023-10-13T06:15:46;9.38;;;6.82;;
16612;SDS011;8419;52.358;9.752;2023-10-13T06:18:50;8.45;;;6.95;;
16612;SDS011;8419;52.358;9.752;2023-10-13T06:21:56;8.45;;;6.72;;
16612;SDS011;8419;52.358;9.752;2023-10-13T06:24:59;11.00;;;6.93;;
16612;SDS011;8419;52.358;9.752;2023-10-13T06:31:20;6.85;;;5.68;;
16612;SDS011;8419;52.358;9.752;2023-10-13T06:34:06;6.93;;;5.87;;
16612;SDS011;8419;52.358;9.752;2023-10-13T06:36:51;8.32;;;5.87;;
16612;SDS011;8419;52.358;9.752;2023-10-13T06:39:38;6.93;;;5.32;;
16612;SDS011;8419;52.358;9.752;2023-10-13T06:42:25;9.30;;;4.75;;
16612;SDS011;8419;52.358;9.752;2023-10-13T06:45:11;11.05;;;5.95;;
16612;SDS011;8419;52.358;9.752;2023-10-13T06:48:00;6.70;;;5.43;;
16612;SDS011;8419;52.358;9.752;2023-10-13T06:50:49;8.25;;;6.05;;
16612;SDS011;8419;52.358;9.752;2023-10-13T06:53:36;8.52;;;5.37;;
16612;SDS011;8419;52.358;9.752;2023-10-13T06:56:24;7.97;;;5.70;;
16612;SDS011;8419;52.358;9.752;2023-10-13T06:59:15;8.55;;;4.97;;
16612;SDS011;8419;52.358;9.752;2023-10-13T07:02:01;10.68;;;6.18;;
16612;SDS011;8419;52.358;9.752;2023-10-13T07:04:52;6.47;;;4.53;;
16612;SDS011;8419;52.358;9.752;2023-10-13T07:07:41;9.50;;;5.05;;
16612;SDS011;8419;52.358;9.752;2023-10-13T07:10:28;10.45;;;5.40;;
16612;SDS011;8419;52.358;9.752;2023-10-13T07:13:19;9.20;;;4.75;;
16612;SDS011;8419;52.358;9.752;2023-10-13T07:16:06;6.80;;;4.57;;
16612;SDS011;8419;52.358;9.752;2023-10-13T07:18:56;9.65;;;5.70;;
16612;SDS011;8419;52.358;9.752;2023-10-13T07:21:48;6.15;;;4.35;;
16612;SDS011;8419;52.358;9.752;2023-10-13T07:24:41;5.75;;;4.45;;
16612;SDS011;8419;52.358;9.752;2023-10-13T07:27:27;9.07;;;4.95;;
16612;SDS011;8419;52.358;9.752;2023-10-13T07:30:13;7.18;;;4.65;;
16612;SDS011;8419;52.358;9.752;2023-10-13T07:32:58;6.68;;;4.85;;
16612;SDS011;8419;52.358;9.752;2023-10-13T07:35:44;7.53;;;4.95;;
16612;SDS011;8419;52.358;9.752;2023-10-13T07:38:34;6.43;;;5.28;;
16612;SDS011;8419;52.358;9.752;2023-10-13T07:41:22;10.60;;;5.37;;
16612;SDS011;8419;52.358;9.752;2023-10-13T07:44:14;8.23;;;4.68;;
16612;SDS011;8419;52.358;9.752;2023-10-13T07:46:59;8.30;;;5.20;;
16612;SDS011;8419;52.358;9.752;2023-10-13T07:49:48;8.52;;;5.80;;
16612;SDS011;8419;52.358;9.752;2023-10-13T07:52:36;7.95;;;5.18;;
16612;SDS011;8419;52.358;9.752;2023-10-13T07:55:26;8.20;;;5.30;;
16612;SDS011;8419;52.358;9.752;2023-10-13T07:58:16;6.90;;;5.30;;
16612;SDS011;8419;52.358;9.752;2023-10-13T08:01:02;12.25;;;5.95;;
16612;SDS011;8419;52.358;9.752;2023-10-13T08:04:00;8.93;;;5.32;;
16612;SDS011;8419;52.358;9.752;2023-10-13T08:06:50;6.95;;;5.30;;
16612;SDS011;8419;52.358;9.752;2023-10-13T08:09:45;8.13;;;5.35;;
16612;SDS011;8419;52.358;9.752;2023-10-13T08:12:36;6.28;;;4.65;;
16612;SDS011;8419;52.358;9.752;2023-10-13T08:15:21;5.65;;;4.43;;
16612;SDS011;8419;52.358;9.752;2023-10-13T08:18:15;5.80;;;4.47;;
16612;SDS011;8419;52.358;9.752;2023-10-13T08:21:14;5.00;;;3.17;;
16612;SDS011;8419;52.358;9.752;2023-10-13T08:24:07;4.82;;;4.03;;
16612;SDS011;8419;52.358;9.752;2023-10-13T08:26:53;5.53;;;3.90;;
16612;SDS011;8419;52.358;9.752;2023-10-13T08:29:51;4.57;;;3.45;;
16612;SDS011;8419;52.358;9.752;2023-10-13T08:33:05;4.55;;;3.15;;
16612;SDS011;8419;52.358;9.752;2023-10-13T08:36:01;5.05;;;3.33;;
16612;SDS011;8419;52.358;9.752;2023-10-13T08:39:15;4.68;;;3.03;;
16612;SDS011;8419;52.358;9.752;2023-10-13T08:42:42;4.15;;;2.60;;
16612;SDS011;8419;52.358;9.752;2023-10-13T08:45:53;3.33;;;2.67;;
16612;SDS011;8419;52.358;9.752;2023-10-13T08:48:43;5.12;;;2.70;;
16612;SDS011;8419;52.358;9.752;2023-10-13T08:51:35;4.30;;;2.60;;
16612;SDS011;8419;52.358;9.752;2023-10-13T08:54:31;4.85;;;3.05;;
16612;SDS011;8419;52.358;9.752;2023-10-13T08:57:23;4.22;;;2.83;;
16612;SDS011;8419;52.358;9.752;2023-10-13T09:00:17;3.85;;;2.60;;
16612;SDS011;8419;52.358;9.752;2023-10-13T09:03:40;3.90;;;2.70;;
16612;SDS011;8419;52.358;9.752;2023-10-13T09:06:27;7.40;;;3.15;;
16612;SDS011;8419;52.358;9.752;2023-10-13T09:09:13;6.25;;;2.75;;
16612;SDS011;8419;52.358;9.752;2023-10-13T09:12:11;5.37;;;2.90;;
16612;SDS011;8419;52.358;9.752;2023-10-13T09:14:58;5.78;;;2.95;;
16612;SDS011;8419;52.358;9.752;2023-10-13T09:17:49;7.60;;;2.70;;
16612;SDS011;8419;52.358;9.752;2023-10-13T09:20:38;3.42;;;3.12;;
16612;SDS011;8419;52.358;9.752;2023-10-13T09:23:27;3.00;;;2.47;;
16612;SDS011;8419;52.358;9.752;2023-10-13T09:26:34;7.05;;;2.97;;
16612;SDS011;8419;52.358;9.752;2023-10-13T09:29:20;4.25;;;2.70;;
16612;SDS011;8419;52.358;9.752;2023-10-13T09:32:06;3.87;;;2.62;;
16612;SDS011;8419;52.358;9.752;2023-10-13T09:35:00;2.72;;;2.35;;
16612;SDS011;8419;52.358;9.752;2023-10-13T09:37:46;3.33;;;2.40;;
16612;SDS011;8419;52.358;9.752;2023-10-13T09:40:32;5.00;;;2.33;;
16612;SDS011;8419;52.358;9.752;2023-10-13T09:43:22;3.67;;;2.70;;
16612;SDS011;8419;52.358;9.752;2023-10-13T09:46:10;4.03;;;2.22;;
16612;SDS011;8419;52.358;9.752;2023-10-13T09:49:04;3.55;;;2.58;;
16612;SDS011;8419;52.358;9.752;2023-10-13T09:51:58;4.62;;;2.17;;
16612;SDS011;8419;52.358;9.752;2023-10-13T09:54:51;6.32;;;2.62;;
16612;SDS011;8419;52.358;9.752;2023-10-13T09:57:49;3.22;;;2.08;;
16612;SDS011;8419;52.358;9.752;2023-10-13T10:00:44;5.85;;;2.70;;
16612;SDS011;8419;52.358;9.752;2023-10-13T10:03:46;4.57;;;2.58;;
16612;SDS011;8419;52.358;9.752;2023-10-13T10:06:37;3.10;;;2.75;;
16612;SDS011;8419;52.358;9.752;2023-10-13T10:09:30;4.03;;;2.40;;
16612;SDS011;8419;52.358;9.752;2023-10-13T10:12:23;5.82;;;2.33;;
16612;SDS011;8419;52.358;9.752;2023-10-13T10:15:20;2.47;;;2.28;;
16612;SDS011;8419;52.358;9.752;2023-10-13T10:18:19;7.82;;;2.95;;
16612;SDS011;8419;52.358;9.752;2023-10-13T10:21:06;7.15;;;2.78;;
16612;SDS011;8419;52.358;9.752;2023-10-13T10:23:53;5.30;;;2.95;;
16612;SDS011;8419;52.358;9.752;2023-10-13T10:26:50;5.72;;;2.72;;
16612;SDS011;8419;52.358;9.752;2023-10-13T10:29:36;3.62;;;2.05;;
16612;SDS011;8419;52.358;9.752;2023-10-13T10:32:31;4.28;;;2.37;;
16612;SDS011;8419;52.358;9.752;2023-10-13T10:35:22;4.28;;;2.60;;
16612;SDS011;8419;52.358;9.752;2023-10-13T10:38:14;3.90;;;2.50;;
16612;SDS011;8419;52.358;9.752;2023-10-13T10:41:07;6.97;;;2.80;;
16612;SDS011;8419;52.358;9.752;2023-10-13T10:43:57;6.45;;;2.78;;
16612;SDS011;8419;52.358;9.752;2023-10-13T10:46:47;9.90;;;3.47;;
16612;SDS011;8419;52.358;9.752;2023-10-13T10:49:41;4.70;;;2.90;;
16612;SDS011;8419;52.358;9.752;2023-10-13T10:52:26;5.00;;;2.90;;
16612;SDS011;8419;52.358;9.752;2023-10-13T10:55:21;4.75;;;2.62;;
16612;SDS011;8419;52.358;9.752;2023-10-13T10:58:12;5.65;;;3.03;;
16612;SDS011;8419;52.358;9.752;2023-10-13T11:01:12;7.03;;;2.58;;
16612;SDS011;8419;52.358;9.752;2023-10-13T11:04:05;8.60;;;3.03;;
16612;SDS011;8419;52.358;9.752;2023-10-13T11:07:02;5.80;;;3.28;;
16612;SDS011;8419;52.358;9.752;2023-10-13T11:09:50;4.53;;;2.53;;
16612;SDS011;8419;52.358;9.752;2023-10-13T11:12:52;10.63;;;3.60;;
16612;SDS011;8419;52.358;9.752;2023-10-13T11:15:42;8.45;;;3.58;;
16612;SDS011;8419;52.358;9.752;2023-10-13T11:18:30;3.65;;;2.78;;
16612;SDS011;8419;52.358;9.752;2023-10-13T11:21:22;7.45;;;3.47;;
16612;SDS011;8419;52.358;9.752;2023-10-13T11:24:13;7.15;;;3.50;;
16612;SDS011;8419;52.358;9.752;2023-10-13T11:27:01;11.30;;;3.12;;
16612;SDS011;8419;52.358;9.752;2023-10-13T11:30:00;6.55;;;3.85;;
16612;SDS011;8419;52.358;9.752;2023-10-13T11:33:00;6.20;;;3.20;;
16612;SDS011;8419;52.358;9.752;2023-10-13T11:35:49;7.22;;;3.03;;
16612;SDS011;8419;52.358;9.752;2023-10-13T11:38:42;4.28;;;2.75;;
16612;SDS011;8419;52.358;9.752;2023-10-13T11:41:34;4.97;;;2.85;;
16612;SDS011;8419;52.358;9.752;2023-10-13T11:44:22;6.45;;;3.20;;
16612;SDS011;8419;52.358;9.752;2023-10-13T11:47:16;7.95;;;3.50;;
16612;SDS011;8419;52.358;9.752;2023-10-13T11:50:31;6.15;;;3.17;;
16612;SDS011;8419;52.358;9.752;2023-10-13T11:53:18;9.60;;;3.10;;
16612;SDS011;8419;52.358;9.752;2023-10-13T11:56:04;6.45;;;3.60;;
16612;SDS011;8419;52.358;9.752;2023-10-13T11:58:54;5.93;;;2.80;;
16612;SDS011;8419;52.358;9.752;2023-10-13T12:01:45;6.95;;;3.47;;
16612;SDS011;8419;52.358;9.752;2023-10-13T12:04:49;4.97;;;3.22;;
16612;SDS011;8419;52.358;9.752;2023-10-13T12:07:36;7.32;;;3.00;;
16612;SDS011;8419;52.358;9.752;2023-10-13T12:10:29;8.35;;;3.30;;
16612;SDS011;8419;52.358;9.752;2023-10-13T12:13:35;8.93;;;3.70;;
16612;SDS011;8419;52.358;9.752;2023-10-13T12:16:24;7.28;;;3.55;;
16612;SDS011;8419;52.358;9.752;2023-10-13T12:19:18;9.85;;;3.75;;
16612;SDS011;8419;52.358;9.752;2023-10-13T12:22:07;7.80;;;3.53;;
16612;SDS011;8419;52.358;9.752;2023-10-13T12:25:01;8.48;;;3.42;;
16612;SDS011;8419;52.358;9.752;2023-10-13T12:27:49;10.60;;;3.70;;
16612;SDS011;8419;52.358;9.752;2023-10-13T12:30:40;6.20;;;3.40;;
16612;SDS011;8419;52.358;9.752;2023-10-13T12:33:33;6.68;;;3.87;;
16612;SDS011;8419;52.358;9.752;2023-10-13T12:36:21;5.82;;;3.22;;
16612;SDS011;8419;52.358;9.752;2023-10-13T12:39:25;6.72;;;3.53;;
16612;SDS011;8419;52.358;9.752;2023-10-13T12:42:43;10.65;;;3.53;;
16612;SDS011;8419;52.358;9.752;2023-10-13T12:45:47;9.75;;;3.15;;
16612;SDS011;8419;52.358;9.752;2023-10-13T12:48:52;8.23;;;3.55;;
16612;SDS011;8419;52.358;9.752;2023-10-13T12:51:43;5.65;;;3.03;;
16612;SDS011;8419;52.358;9.752;2023-10-13T12:54:35;6.43;;;3.50;;
16612;SDS011;8419;52.358;9.752;2023-10-13T12:57:20;7.55;;;3.58;;
16612;SDS011;8419;52.358;9.752;2023-10-13T13:00:09;11.60;;;4.15;;
16612;SDS011;8419;52.358;9.752;2023-10-13T13:03:05;7.87;;;2.85;;
16612;SDS011;8419;52.358;9.752;2023-10-13T13:05:57;6.10;;;3.70;;
16612;SDS011;8419;52.358;9.752;2023-10-13T13:08:42;9.88;;;3.92;;
16612;SDS011;8419;52.358;9.752;2023-10-13T13:11:28;12.35;;;3.20;;
16612;SDS011;8419;52.358;9.752;2023-10-13T13:14:14;6.70;;;3.58;;
16612;SDS011;8419;52.358;9.752;2023-10-13T13:17:00;9.57;;;3.67;;
16612;SDS011;8419;52.358;9.752;2023-10-13T13:19:48;5.57;;;3.08;;
16612;SDS011;8419;52.358;9.752;2023-10-13T13:22:33;11.65;;;3.85;;
16612;SDS011;8419;52.358;9.752;2023-10-13T13:25:20;10.77;;;3.67;;
16612;SDS011;8419;52.358;9.752;2023-10-13T13:28:10;10.65;;;3.28;;
16612;SDS011;8419;52.358;9.752;2023-10-13T13:30:56;7.05;;;3.67;;
16612;SDS011;8419;52.358;9.752;2023-10-13T13:33:42;9.05;;;3.37;;
16612;SDS011;8419;52.358;9.752;2023-10-13T13:36:28;8.25;;;3.35;;
16612;SDS011;8419;52.358;9.752;2023-10-13T13:39:19;8.32;;;3.42;;
16612;SDS011;8419;52.358;9.752;2023-10-13T13:42:13;7.37;;;3.05;;
16612;SDS011;8419;52.358;9.752;2023-10-13T13:45:01;16.98;;;3.50;;
16612;SDS011;8419;52.358;9.752;2023-10-13T13:47:47;11.50;;;3.60;;
16612;SDS011;8419;52.358;9.752;2023-10-13T13:50:37;6.28;;;3.20;;
16612;SDS011;8419;52.358;9.752;2023-10-13T13:53:25;9.10;;;3.80;;
16612;SDS011;8419;52.358;9.752;2023-10-13T13:56:16;8.77;;;3.15;;
16612;SDS011;8419;52.358;9.752;2023-10-13T13:59:02;7.87;;;3.97;;
16612;SDS011;8419;52.358;9.752;2023-10-13T14:01:52;6.90;;;3.47;;
16612;SDS011;8419;52.358;9.752;2023-10-13T14:04:43;11.02;;;3.67;;
16612;SDS011;8419;52.358;9.752;2023-10-13T14:07:30;14.60;;;3.70;;
16612;SDS011;8419;52.358;9.752;2023-10-13T14:10:17;7.22;;;3.60;;
16612;SDS011;8419;52.358;9.752;2023-10-13T14:13:15;8.10;;;3.00;;
16612;SDS011;8419;52.358;9.752;2023-10-13T14:16:01;8.25;;;3.00;;
16612;SDS011;8419;52.358;9.752;2023-10-13T14:18:47;7.93;;;3.20;;
16612;SDS011;8419;52.358;9.752;2023-10-13T14:21:36;14.07;;;3.67;;
16612;SDS011;8419;52.358;9.752;2023-10-13T14:24:21;14.63;;;3.70;;
16612;SDS011;8419;52.358;9.752;2023-10-13T14:27:11;10.45;;;3.37;;
16612;SDS011;8419;52.358;9.752;2023-10-13T14:30:01;9.90;;;3.67;;
16612;SDS011;8419;52.358;9.752;2023-10-13T14:32:47;9.68;;;3.83;;
16612;SDS011;8419;52.358;9.752;2023-10-13T14:35:35;13.38;;;3.85;;
16612;SDS011;8419;52.358;9.752;2023-10-13T14:38:20;12.70;;;3.95;;
16612;SDS011;8419;52.358;9.752;2023-10-13T14:41:06;6.75;;;3.35;;
16612;SDS011;8419;52.358;9.752;2023-10-13T14:43:51;6.55;;;3.17;;
16612;SDS011;8419;52.358;9.752;2023-10-13T14:46:40;7.03;;;3.37;;
16612;SDS011;8419;52.358;9.752;2023-10-13T14:49:27;9.50;;;3.03;;
16612;SDS011;8419;52.358;9.752;2023-10-13T14:52:12;3.72;;;2.35;;
16612;SDS011;8419;52.358;9.752;2023-10-13T14:55:01;5.37;;;3.60;;
16612;SDS011;8419;52.358;9.752;2023-10-13T14:57:52;10.10;;;3.42;;
16612;SDS011;8419;52.358;9.752;2023-10-13T15:00:37;8.73;;;3.50;;
16612;SDS011;8419;52.358;9.752;2023-10-13T15:03:22;8.82;;;3.70;;
16612;SDS011;8419;52.358;9.752;2023-10-13T15:06:14;7.28;;;3.40;;
16612;SDS011;8419;52.358;9.752;2023-10-13T15:09:02;6.90;;;3.72;;
16612;SDS011;8419;52.358;9.752;2023-10-13T15:11:47;6.57;;;3.78;;
16612;SDS011;8419;52.358;9.752;2023-10-13T15:14:37;12.13;;;4.03;;
16612;SDS011;8419;52.358;9.752;2023-10-13T15:17:26;8.73;;;3.67;;
16612;SDS011;8419;52.358;9.752;2023-10-13T15:20:13;11.07;;;3.42;;
16612;SDS011;8419;52.358;9.752;2023-10-13T15:23:01;6.90;;;3.42;;
16612;SDS011;8419;52.358;9.752;2023-10-13T15:25:49;8.20;;;4.10;;
16612;SDS011;8419;52.358;9.752;2023-10-13T15:28:35;9.80;;;3.67;;
16612;SDS011;8419;52.358;9.752;2023-10-13T15:31:21;8.68;;;3.50;;
16612;SDS011;8419;52.358;9.752;2023-10-13T15:34:11;7.07;;;3.60;;
16612;SDS011;8419;52.358;9.752;2023-10-13T15:36:57;9.88;;;3.90;;
16612;SDS011;8419;52.358;9.752;2023-10-13T15:39:43;6.93;;;3.17;;
16612;SDS011;8419;52.358;9.752;2023-10-13T15:42:28;8.55;;;3.95;;
16612;SDS011;8419;52.358;9.752;2023-10-13T15:45:14;10.35;;;3.70;;
16612;SDS011;8419;52.358;9.752;2023-10-13T15:48:03;6.78;;;3.58;;
16612;SDS011;8419;52.358;9.752;2023-10-13T15:50:57;12.43;;;4.12;;
16612;SDS011;8419;52.358;9.752;2023-10-13T15:53:59;7.95;;;3.62;;
16612;SDS011;8419;52.358;9.752;2023-10-13T15:56:59;10.85;;;4.20;;
16612;SDS011;8419;52.358;9.752;2023-10-13T15:59:45;7.53;;;3.03;;
16612;SDS011;8419;52.358;9.752;2023-10-13T16:02:32;8.07;;;3.40;;
16612;SDS011;8419;52.358;9.752;2023-10-13T16:05:19;7.43;;;3.05;;
16612;SDS011;8419;52.358;9.752;2023-10-13T16:08:07;8.63;;;3.87;;
16612;SDS011;8419;52.358;9.752;2023-10-13T16:11:03;8.75;;;4.18;;
16612;SDS011;8419;52.358;9.752;2023-10-13T16:13:51;9.55;;;3.97;;
16612;SDS011;8419;52.358;9.752;2023-10-13T16:16:37;9.18;;;4.10;;
16612;SDS011;8419;52.358;9.752;2023-10-13T16:19:23;8.57;;;3.75;;
16612;SDS011;8419;52.358;9.752;2023-10-13T16:22:11;9.75;;;4.20;;
16612;SDS011;8419;52.358;9.752;2023-10-13T16:24:57;11.70;;;3.85;;
16612;SDS011;8419;52.358;9.752;2023-10-13T16:27:45;8.18;;;3.65;;
16612;SDS011;8419;52.358;9.752;2023-10-13T16:30:33;7.87;;;3.72;;
16612;SDS011;8419;52.358;9.752;2023-10-13T16:33:21;11.45;;;3.95;;
16612;SDS011;8419;52.358;9.752;2023-10-13T16:36:07;9.48;;;3.75;;
16612;SDS011;8419;52.358;9.752;2023-10-13T16:38:53;11.55;;;3.70;;
16612;SDS011;8419;52.358;9.752;2023-10-13T16:41:42;6.57;;;3.97;;
16612;SDS011;8419;52.358;9.752;2023-10-13T16:44:29;11.40;;;4.18;;
16612;SDS011;8419;52.358;9.752;2023-10-13T16:47:15;9.20;;;3.75;;
16612;SDS011;8419;52.358;9.752;2023-10-13T16:50:01;10.55;;;3.92;;
16612;SDS011;8419;52.358;9.752;2023-10-13T16:52:47;7.85;;;3.53;;
16612;SDS011;8419;52.358;9.752;2023-10-13T16:55:32;9.10;;;3.92;;
16612;SDS011;8419;52.358;9.752;2023-10-13T16:58:18;10.48;;;4.10;;
16612;SDS011;8419;52.358;9.752;2023-10-13T17:01:10;10.55;;;3.85;;
16612;SDS011;8419;52.358;9.752;2023-10-13T17:03:56;7.12;;;3.95;;
16612;SDS011;8419;52.358;9.752;2023-10-13T17:06:41;8.50;;;3.37;;
16612;SDS011;8419;52.358;9.752;2023-10-13T17:09:26;9.80;;;4.80;;
16612;SDS011;8419;52.358;9.752;2023-10-13T17:12:11;7.15;;;4.50;;
16612;SDS011;8419;52.358;9.752;2023-10-13T17:14:57;9.65;;;4.12;;
16612;SDS011;8419;52.358;9.752;2023-10-13T17:17:42;8.48;;;3.53;;
16612;SDS011;8419;52.358;9.752;2023-10-13T17:20:28;10.55;;;3.97;;
16612;SDS011;8419;52.358;9.752;2023-10-13T17:23:18;12.30;;;4.03;;
16612;SDS011;8419;52.358;9.752;2023-10-13T17:26:03;10.30;;;4.40;;
16612;SDS011;8419;52.358;9.752;2023-10-13T17:28:51;9.75;;;4.45;;